Time;durP1;ratioP1;P1;durP2;ratioP2;P2;SDS_P1;SDS_P2;PMS_P1;PMS_P2;Temp;Humidity;BMP_temperature;BMP_pressure;BME280_temperature;BME280_humidity;BME280_pressure;Samples;Min_cycle;Max_cycle;Signal;HPM_P1;HPM_P2
2022/09/16 00:00:50;;;;;;;12.68;2.60;;;13.10;96.90;;;;;;5053268;28;20391;-72
2022/09/16 00:03:18;;;;;;;9.65;2.75;;;13.10;96.90;;;;;;5054087;28;20057;-72
2022/09/16 00:05:48;;;;;;;9.35;2.58;;;13.20;97.00;;;;;;5054179;28;20056;-72
2022/09/16 00:08:17;;;;;;;10.88;2.30;;;13.10;97.00;;;;;;5053102;28;20052;-72
2022/09/16 00:10:45;;;;;;;7.15;1.80;;;13.00;96.90;;;;;;5039045;28;20359;-72
2022/09/16 00:13:13;;;;;;;7.15;1.70;;;13.00;96.90;;;;;;5040259;28;20044;-72
2022/09/16 00:15:46;;;;;;;10.85;1.92;;;13.10;96.80;;;;;;5038790;28;20356;-72
2022/09/16 00:18:13;;;;;;;7.25;1.95;;;13.10;96.70;;;;;;5057452;28;20040;-72
2022/09/16 00:20:45;;;;;;;6.35;1.70;;;13.10;96.60;;;;;;5038844;28;20037;-71
2022/09/16 00:23:14;;;;;;;9.00;1.70;;;13.10;96.50;;;;;;5040276;28;20045;-73
2022/09/16 00:25:41;;;;;;;7.05;1.85;;;13.10;96.40;;;;;;5057373;28;20052;-71
2022/09/16 00:28:09;;;;;;;8.95;2.00;;;13.10;96.40;;;;;;5038538;28;20383;-70
2022/09/16 00:30:36;;;;;;;12.05;2.10;;;13.00;96.40;;;;;;5057388;28;20041;-73
2022/09/16 00:33:04;;;;;;;5.13;1.55;;;13.10;96.40;;;;;;5057622;28;20041;-73
2022/09/16 00:35:31;;;;;;;6.55;1.65;;;13.00;96.50;;;;;;5056267;28;20044;-74
2022/09/16 00:37:59;;;;;;;8.00;1.70;;;13.00;96.50;;;;;;5057354;28;20036;-73
2022/09/16 00:40:26;;;;;;;6.97;1.77;;;13.00;96.50;;;;;;5056020;28;20383;-74
2022/09/16 00:42:54;;;;;;;7.35;1.65;;;13.00;96.50;;;;;;5056971;28;20381;-74
2022/09/16 00:45:23;;;;;;;10.30;1.45;;;13.00;96.50;;;;;;5040097;28;20068;-74
2022/09/16 00:47:58;;;;;;;11.13;1.58;;;13.00;96.40;;;;;;5055927;28;20372;-73
2022/09/16 00:50:47;;;;;;;7.20;1.70;;;12.90;96.40;;;;;;5056848;28;20059;-73
2022/09/16 00:53:21;;;;;;;5.57;1.60;;;12.90;96.40;;;;;;5022858;28;20045;-71
2022/09/16 00:55:55;;;;;;;6.97;1.40;;;12.90;96.40;;;;;;5055704;28;20045;-73
2022/09/16 00:58:45;;;;;;;9.70;1.65;;;13.00;96.30;;;;;;5056898;28;20045;-74
2022/09/16 01:01:13;;;;;;;7.20;1.50;;;12.90;96.30;;;;;;5055692;28;20371;-73
2022/09/16 01:03:48;;;;;;;7.38;1.50;;;12.90;96.30;;;;;;5056647;28;20372;-73
2022/09/16 01:06:17;;;;;;;8.43;1.77;;;12.90;96.30;;;;;;5039670;28;20071;-73
2022/09/16 01:08:49;;;;;;;4.78;1.50;;;12.90;96.30;;;;;;5055674;28;20045;-73
2022/09/16 01:11:17;;;;;;;5.00;1.55;;;12.90;96.30;;;;;;5056861;28;20060;-73
2022/09/16 01:13:45;;;;;;;11.75;1.48;;;12.90;96.30;;;;;;5055627;28;20052;-73
2022/09/16 01:16:33;;;;;;;7.18;1.67;;;12.90;96.40;;;;;;5056572;28;20045;-72
2022/09/16 01:19:05;;;;;;;;;;;12.90;96.40;;;;;;5056876;28;20053;-73
2022/09/16 01:21:38;;;;;;;3.28;1.27;;;12.90;96.40;;;;;;5054984;28;19921;-73
2022/09/16 01:24:36;;;;;;;6.88;1.60;;;12.90;96.40;;;;;;5056380;28;20376;-73
2022/09/16 01:27:43;;;;;;;5.57;1.40;;;12.90;96.40;;;;;;5038280;28;20052;-73
2022/09/16 01:30:42;;;;;;;4.38;1.30;;;12.90;96.40;;;;;;5056224;28;20041;-73
2022/09/16 01:33:25;;;;;;;7.40;1.30;;;12.90;96.40;;;;;;5002639;28;20357;-73
2022/09/16 01:36:05;;;;;;;2.72;1.20;;;12.90;96.40;;;;;;5055018;28;20056;-73
2022/09/16 01:38:47;;;;;;;6.97;1.30;;;12.90;96.50;;;;;;5056212;28;20056;-73
2022/09/16 01:41:27;;;;;;;5.88;1.30;;;13.00;96.50;;;;;;5037479;28;20040;-73
2022/09/16 01:44:00;;;;;;;5.43;1.23;;;12.90;96.50;;;;;;5056293;28;20375;-73
2022/09/16 01:46:46;;;;;;;4.40;1.20;;;12.90;96.40;;;;;;5056139;28;20371;-73
2022/09/16 01:49:40;;;;;;;9.05;1.35;;;12.90;96.40;;;;;;5054446;28;20056;-73
2022/09/16 01:52:36;;;;;;;6.47;1.50;;;12.90;96.50;;;;;;5038861;28;20452;-72
2022/09/16 01:55:12;;;;;;;6.35;1.67;;;12.80;96.50;;;;;;5054512;28;20063;-73
2022/09/16 01:57:54;;;;;;;3.85;1.10;;;12.80;96.60;;;;;;5055841;28;20364;-73
2022/09/16 02:00:23;;;;;;;7.53;1.40;;;12.70;96.70;;;;;;5054399;28;20063;-73
2022/09/16 02:02:59;;;;;;;;;;;12.70;96.70;;;;;;5055972;28;20045;-73
2022/09/16 02:05:44;;;;;;;6.35;1.60;;;12.50;96.80;;;;;;5055658;28;19920;-72
2022/09/16 02:08:26;;;;;;;6.10;1.40;;;12.50;96.90;;;;;;5054339;28;20099;-73
2022/09/16 02:10:58;;;;;;;5.85;1.10;;;12.40;97.00;;;;;;5055690;28;20041;-73
2022/09/16 02:13:32;;;;;;;4.90;1.20;;;12.30;97.00;;;;;;5037880;28;20041;-73
2022/09/16 02:16:05;;;;;;;6.28;1.40;;;12.20;97.10;;;;;;5038165;28;20053;-72
2022/09/16 02:18:37;;;;;;;7.10;1.50;;;12.10;97.20;;;;;;5055281;28;20045;-72
2022/09/16 02:21:08;;;;;;;5.13;1.55;;;12.10;97.40;;;;;;5054271;28;20053;-73
2022/09/16 02:23:43;;;;;;;3.83;1.30;;;11.90;97.50;;;;;;5055217;28;20045;-73
2022/09/16 02:26:16;;;;;;;6.82;1.40;;;11.90;97.70;;;;;;5055330;28;20052;-72
2022/09/16 02:28:48;;;;;;;7.82;1.40;;;11.80;97.80;;;;;;5054240;28;20041;-73
2022/09/16 02:31:21;;;;;;;8.07;1.35;;;11.80;97.90;;;;;;5055202;28;20447;-73
2022/09/16 02:34:00;;;;;;;5.22;1.40;;;11.80;98.10;;;;;;5053425;28;20048;-73
2022/09/16 02:36:30;;;;;;;4.10;1.15;;;11.70;98.20;;;;;;5037777;28;20080;-72
2022/09/16 02:39:08;;;;;;;6.03;1.30;;;11.80;98.30;;;;;;5037769;28;20427;-73
2022/09/16 02:41:38;;;;;;;5.72;1.40;;;11.70;98.30;;;;;;5053764;28;20068;-73
2022/09/16 02:44:07;;;;;;;5.90;1.27;;;11.70;98.40;;;;;;5055280;28;20387;-73
2022/09/16 02:46:49;;;;;;;6.93;1.25;;;11.70;98.50;;;;;;5055362;28;20456;-73
2022/09/16 02:49:53;;;;;;;6.07;1.30;;;11.70;98.60;;;;;;5053499;28;20041;-73
2022/09/16 02:52:39;;;;;;;7.07;1.50;;;11.70;98.60;;;;;;5031399;28;20049;-72
2022/09/16 02:55:19;;;;;;;5.07;1.40;;;11.70;98.70;;;;;;5053744;28;20049;-73
2022/09/16 02:57:48;;;;;;;7.40;1.23;;;11.70;98.80;;;;;;5037417;28;20048;-73
2022/09/16 03:00:16;;;;;;;4.65;1.35;;;11.60;98.80;;;;;;5053451;28;20045;-73
2022/09/16 03:02:44;;;;;;;6.45;1.42;;;11.60;98.90;;;;;;5055248;28;20049;-74
2022/09/16 03:05:11;;;;;;;8.73;1.50;;;11.50;99.10;;;;;;5054593;28;20052;-73
2022/09/16 03:07:41;;;;;;;6.00;1.55;;;11.50;99.20;;;;;;5035914;28;20391;-72
2022/09/16 03:10:11;;;;;;;4.53;1.30;;;11.50;99.20;;;;;;5054466;28;20045;-73
2022/09/16 03:13:04;;;;;;;5.40;1.30;;;11.50;99.30;;;;;;5054463;28;20048;-73
2022/09/16 03:15:50;;;;;;;6.75;1.45;;;11.50;99.40;;;;;;5028425;28;20060;-73
2022/09/16 03:18:35;;;;;;;8.80;1.30;;;11.50;99.60;;;;;;5054527;28;20476;-73
2022/09/16 03:21:23;;;;;;;6.45;1.30;;;12.70;99.90;;;;;;5053512;28;20049;-73
2022/09/16 03:24:19;;;;;;;6.53;1.30;;;11.60;99.70;;;;;;5013666;28;20049;-73
2022/09/16 03:27:00;;;;;;;4.25;1.10;;;11.60;99.70;;;;;;5054911;28;20053;-73
2022/09/16 03:29:36;;;;;;;5.90;1.52;;;11.60;99.80;;;;;;5037124;28;20040;-73
2022/09/16 03:32:20;;;;;;;6.38;1.40;;;11.70;99.70;;;;;;5021132;28;20490;-73
2022/09/16 03:34:59;;;;;;;8.52;1.40;;;11.70;99.70;;;;;;5019765;28;20056;-73
2022/09/16 03:37:33;;;;;;;5.45;1.30;;;11.70;99.70;;;;;;5054520;28;20045;-73
2022/09/16 03:40:10;;;;;;;5.70;1.50;;;11.80;99.80;;;;;;5054185;28;20050;-73
2022/09/16 03:42:39;;;;;;;6.15;1.52;;;11.80;99.80;;;;;;5053694;28;20345;-73
2022/09/16 03:45:13;;;;;;;6.82;1.40;;;11.80;99.80;;;;;;5023751;28;20056;-73
2022/09/16 03:47:41;;;;;;;5.85;1.38;;;11.80;99.90;;;;;;5057048;28;20048;-73
2022/09/16 03:50:08;;;;;;;;;;;11.80;99.90;;;;;;5058309;28;20049;-73
2022/09/16 03:52:36;;;;;;;8.10;1.60;;;11.80;99.90;;;;;;5040441;28;19920;-73
2022/09/16 03:55:04;;;;;;;7.15;1.08;;;11.80;99.90;;;;;;5033330;28;20053;-73
2022/09/16 03:57:32;;;;;;;6.38;1.40;;;11.80;99.90;;;;;;5037886;28;20050;-73
2022/09/16 03:59:59;;;;;;;4.18;1.20;;;11.80;99.90;;;;;;5020713;28;20056;-73
2022/09/16 04:02:27;;;;;;;8.88;1.40;;;11.80;99.90;;;;;;5036770;28;20378;-73
2022/09/16 04:04:54;;;;;;;2.60;0.93;;;11.90;99.90;;;;;;5037812;28;20049;-73
2022/09/16 04:07:22;;;;;;;9.15;1.90;;;11.90;99.90;;;;;;5019901;28;20057;-73
2022/09/16 04:09:49;;;;;;;7.82;1.40;;;11.90;99.90;;;;;;5038226;28;20037;-73
2022/09/16 04:12:17;;;;;;;9.77;1.60;;;11.90;99.90;;;;;;5020450;28;20056;-73
2022/09/16 04:14:44;;;;;;;7.72;1.38;;;11.90;99.90;;;;;;5019514;28;20376;-73
2022/09/16 04:17:12;;;;;;;8.90;1.40;;;11.90;99.90;;;;;;5037541;28;20045;-73
2022/09/16 04:19:39;;;;;;;9.23;1.63;;;11.90;99.90;;;;;;5037698;28;20050;-73
2022/09/16 04:22:06;;;;;;;5.63;1.60;;;11.90;99.90;;;;;;5036591;28;20048;-73
2022/09/16 04:24:34;;;;;;;9.75;1.80;;;11.90;99.90;;;;;;5020711;28;20368;-73
2022/09/16 04:27:02;;;;;;;5.93;1.48;;;11.90;99.90;;;;;;5019353;28;20050;-73
2022/09/16 04:29:31;;;;;;;9.68;1.70;;;11.90;99.90;;;;;;5020122;28;20057;-73
2022/09/16 04:31:58;;;;;;;4.78;1.50;;;11.90;99.90;;;;;;5036798;28;20050;-73
2022/09/16 04:34:26;;;;;;;8.80;1.80;;;11.90;99.90;;;;;;5019228;28;20060;-73
2022/09/16 04:36:53;;;;;;;8.52;1.40;;;11.80;99.90;;;;;;5037396;28;20057;-73
2022/09/16 04:39:21;;;;;;;7.18;1.80;;;11.80;99.90;;;;;;5037385;28;20372;-73
2022/09/16 04:41:49;;;;;;;6.90;1.40;;;11.80;99.90;;;;;;5036028;28;20048;-73
2022/09/16 04:44:16;;;;;;;9.32;1.50;;;11.70;99.90;;;;;;5037357;28;20057;-72
2022/09/16 04:46:44;;;;;;;4.90;1.40;;;11.70;99.90;;;;;;5019850;28;20050;-73
2022/09/16 04:49:11;;;;;;;6.40;1.50;;;11.70;99.90;;;;;;5018370;28;20065;-73
2022/09/16 04:51:39;;;;;;;9.45;1.58;;;11.70;99.90;;;;;;5019224;28;20452;-73
2022/09/16 04:54:10;;;;;;;8.15;1.63;;;11.60;99.90;;;;;;5036266;28;20068;-73
2022/09/16 04:56:38;;;;;;;7.03;1.48;;;11.60;99.90;;;;;;5036473;28;20060;-73
2022/09/16 04:59:06;;;;;;;9.95;1.48;;;11.60;99.90;;;;;;5037130;28;20056;-72
2022/09/16 05:01:37;;;;;;;7.38;1.63;;;11.60;99.90;;;;;;5035795;28;20499;-72
2022/09/16 05:04:06;;;;;;;7.00;1.52;;;11.60;99.90;;;;;;5019876;28;20046;-73
2022/09/16 05:06:39;;;;;;;8.68;1.83;;;11.60;99.90;;;;;;5019380;28;20491;-72
2022/09/16 05:09:09;;;;;;;10.43;1.65;;;11.70;99.90;;;;;;5035733;28;20052;-74
2022/09/16 05:11:38;;;;;;;8.40;1.80;;;11.50;99.90;;;;;;5036681;28;20048;-73
2022/09/16 05:14:09;;;;;;;10.35;1.73;;;11.50;99.90;;;;;;5035496;28;20067;-73
2022/09/16 05:16:37;;;;;;;6.72;1.70;;;11.50;99.90;;;;;;5036918;28;20052;-72
2022/09/16 05:19:04;;;;;;;5.88;1.80;;;11.40;99.90;;;;;;5036463;28;20037;-73
2022/09/16 05:21:34;;;;;;;5.82;1.60;;;11.40;99.90;;;;;;5035378;28;20380;-72
2022/09/16 05:24:04;;;;;;;11.63;1.70;;;11.40;99.90;;;;;;5036411;28;20045;-73
2022/09/16 05:26:34;;;;;;;9.18;1.60;;;11.40;99.90;;;;;;5019060;28;20045;-73
2022/09/16 05:29:04;;;;;;;7.78;1.85;;;11.30;99.90;;;;;;5035197;28;20056;-72
2022/09/16 05:31:34;;;;;;;8.68;1.85;;;11.30;99.90;;;;;;5036553;28;20342;-72
2022/09/16 05:34:22;;;;;;;8.32;1.83;;;11.20;99.90;;;;;;5035233;28;20041;-73
2022/09/16 05:36:52;;;;;;;7.45;2.08;;;11.20;99.90;;;;;;5036181;28;20048;-72
2022/09/16 05:39:21;;;;;;;9.60;1.98;;;11.20;99.90;;;;;;5036387;28;20045;-73
2022/09/16 05:41:56;;;;;;;10.30;2.00;;;11.20;99.90;;;;;;5035116;28;20053;-72
2022/09/16 05:44:25;;;;;;;8.63;1.80;;;11.20;99.90;;;;;;5036674;28;20045;-73
2022/09/16 05:46:53;;;;;;;6.43;1.80;;;11.20;99.90;;;;;;5035563;28;20476;-72
2022/09/16 05:49:22;;;;;;;7.22;1.67;;;10.90;99.90;;;;;;5035587;28;20057;-73
2022/09/16 05:51:50;;;;;;;6.60;1.88;;;11.20;99.90;;;;;;5036271;28;20049;-72
2022/09/16 05:54:18;;;;;;;9.23;2.00;;;11.20;99.90;;;;;;5017738;28;20069;-72
2022/09/16 05:56:47;;;;;;;7.45;1.73;;;11.20;99.90;;;;;;5035929;28;20063;-73
2022/09/16 05:59:15;;;;;;;;;;;11.10;99.90;;;;;;5036734;28;20048;-72
2022/09/16 06:01:43;;;;;;;10.00;1.90;;;11.10;99.90;;;;;;5017344;28;19925;-73
2022/09/16 06:04:13;;;;;;;7.85;1.80;;;11.10;99.90;;;;;;5018411;28;20053;-73
2022/09/16 06:06:43;;;;;;;7.32;1.95;;;11.10;99.90;;;;;;5035260;28;20065;-72
2022/09/16 06:09:13;;;;;;;8.38;1.80;;;11.80;99.90;;;;;;5016633;28;20068;-73
2022/09/16 06:11:44;;;;;;;7.03;1.63;;;11.20;99.90;;;;;;5035673;28;20041;-72
2022/09/16 06:14:13;;;;;;;7.05;1.88;;;11.20;99.90;;;;;;5017204;28;20045;-72
2022/09/16 06:16:40;;;;;;;9.70;1.90;;;11.20;99.90;;;;;;5018110;28;20060;-73
2022/09/16 06:19:14;;;;;;;7.28;1.83;;;11.30;99.90;;;;;;5018036;28;20060;-73
2022/09/16 06:21:43;;;;;;;9.15;1.80;;;11.30;99.90;;;;;;5017252;28;20041;-73
2022/09/16 06:24:13;;;;;;;8.88;2.10;;;11.30;99.90;;;;;;5035586;28;20461;-73
2022/09/16 06:26:42;;;;;;;9.20;1.90;;;11.40;99.90;;;;;;5035389;28;20357;-73
2022/09/16 06:29:14;;;;;;;7.85;1.50;;;11.40;99.90;;;;;;5016896;28;20046;-73
2022/09/16 06:31:42;;;;;;;7.78;1.73;;;11.40;99.90;;;;;;5035642;28;20058;-72
2022/09/16 06:34:14;;;;;;;9.88;2.08;;;11.50;99.90;;;;;;5034079;28;20045;-73
2022/09/16 06:36:42;;;;;;;8.88;1.92;;;11.50;99.90;;;;;;5034619;28;20068;-72
2022/09/16 06:39:14;;;;;;;8.07;1.90;;;11.50;99.90;;;;;;5034629;28;20041;-71
2022/09/16 06:41:42;;;;;;;11.48;1.92;;;11.50;99.90;;;;;;5033626;28;20149;-72
2022/09/16 06:44:09;;;;;;;9.82;1.95;;;11.90;99.90;;;;;;5017759;28;20049;-72
2022/09/16 06:46:39;;;;;;;6.65;1.90;;;11.60;99.90;;;;;;5018000;28;20046;-72
2022/09/16 06:49:09;;;;;;;7.80;2.00;;;11.60;99.90;;;;;;5033448;28;20064;-72
2022/09/16 06:51:37;;;;;;;8.13;1.90;;;11.60;99.90;;;;;;5017136;28;20042;-73
2022/09/16 06:54:07;;;;;;;8.52;2.13;;;10.10;99.90;;;;;;5033880;28;20475;-72
2022/09/16 06:56:36;;;;;;;8.02;2.28;;;11.60;99.90;;;;;;5037659;28;20044;-72
2022/09/16 06:59:04;;;;;;;9.05;2.05;;;11.60;99.90;;;;;;5036696;28;20076;-72
2022/09/16 07:01:32;;;;;;;8.45;2.15;;;11.50;99.90;;;;;;5053278;28;20053;-72
2022/09/16 07:04:07;;;;;;;11.40;2.28;;;11.60;99.90;;;;;;5036925;28;20052;-71
2022/09/16 07:06:34;;;;;;;12.70;2.33;;;11.60;99.90;;;;;;5053983;28;20057;-71
2022/09/16 07:09:22;;;;;;;12.68;2.58;;;11.60;99.90;;;;;;5054414;28;20056;-70
2022/09/16 07:11:50;;;;;;;10.13;2.10;;;11.60;99.90;;;;;;5020331;28;20053;-70
2022/09/16 07:14:17;;;;;;;6.95;2.42;;;11.60;99.90;;;;;;5053201;28;20060;-70
2022/09/16 07:16:45;;;;;;;10.18;2.40;;;11.50;99.90;;;;;;5054166;28;20056;-73
2022/09/16 07:19:13;;;;;;;8.80;2.25;;;11.40;99.90;;;;;;5037870;28;20467;-73
2022/09/16 07:21:40;;;;;;;7.93;2.38;;;11.50;99.90;;;;;;5039731;28;20053;-73
2022/09/16 07:24:11;;;;;;;14.90;3.20;;;11.50;99.90;;;;;;5058214;28;20403;-70
2022/09/16 07:26:40;;;;;;;9.55;2.38;;;11.50;99.90;;;;;;5035553;28;20063;-73
2022/09/16 07:29:11;;;;;;;14.27;3.40;;;11.60;99.90;;;;;;5057095;28;20044;-73
2022/09/16 07:31:39;;;;;;;13.02;2.78;;;11.70;99.90;;;;;;5041591;28;20040;-70
2022/09/16 07:34:09;;;;;;;11.25;2.75;;;11.80;99.90;;;;;;5057838;28;20045;-73
2022/09/16 07:36:43;;;;;;;12.95;2.45;;;11.90;99.90;;;;;;5058781;28;20055;-70
2022/09/16 07:39:12;;;;;;;10.43;2.72;;;12.00;99.90;;;;;;5059016;28;20041;-70
2022/09/16 07:41:43;;;;;;;8.13;2.50;;;12.10;99.90;;;;;;5039630;28;20067;-73
2022/09/16 07:44:13;;;;;;;15.00;2.72;;;12.20;99.90;;;;;;5041207;28;20045;-73
2022/09/16 07:46:41;;;;;;;12.63;3.00;;;12.30;99.90;;;;;;5058917;28;20044;-71
2022/09/16 07:49:11;;;;;;;9.23;2.78;;;12.50;99.90;;;;;;5039665;28;20076;-71
2022/09/16 07:51:39;;;;;;;10.02;2.47;;;12.60;99.90;;;;;;5058180;28;20360;-71
2022/09/16 07:54:09;;;;;;;11.50;2.42;;;12.80;99.90;;;;;;5056076;28;20048;-71
2022/09/16 07:56:38;;;;;;;11.20;2.40;;;12.90;99.90;;;;;;5040352;28;20052;-73
2022/09/16 07:59:10;;;;;;;10.63;2.00;;;13.10;99.90;;;;;;5040485;28;20045;-74
2022/09/16 08:01:43;;;;;;;6.93;2.08;;;13.50;99.90;;;;;;5057501;28;20554;-73
2022/09/16 08:04:11;;;;;;;9.55;1.70;;;13.50;99.90;;;;;;5057732;28;20060;-70
2022/09/16 08:06:39;;;;;;;7.22;1.52;;;13.60;99.90;;;;;;5057799;28;20052;-71
2022/09/16 08:09:07;;;;;;;7.30;1.75;;;13.70;99.90;;;;;;5056153;28;20051;-71
2022/09/16 08:11:54;;;;;;;6.25;1.65;;;13.90;99.90;;;;;;5057711;28;20387;-73
2022/09/16 08:14:22;;;;;;;11.25;1.60;;;14.10;99.40;;;;;;5056186;28;20052;-70
2022/09/16 08:16:50;;;;;;;10.45;1.92;;;14.00;99.10;;;;;;5040114;28;20119;-72
2022/09/16 08:19:19;;;;;;;6.82;1.40;;;14.00;98.90;;;;;;5039720;28;20045;-70
2022/09/16 08:21:47;;;;;;;7.25;1.65;;;14.10;98.80;;;;;;5056241;28;20045;-72
2022/09/16 08:24:15;;;;;;;7.20;1.80;;;14.10;98.30;;;;;;5057889;28;20060;-73
2022/09/16 08:26:42;;;;;;;7.65;2.00;;;14.00;98.40;;;;;;5057553;28;20060;-71
2022/09/16 08:29:10;;;;;;;5.55;1.70;;;14.00;98.10;;;;;;5056419;28;20056;-73
2022/09/16 08:31:38;;;;;;;6.20;1.38;;;13.90;97.90;;;;;;5056000;28;20057;-73
2022/09/16 08:34:06;;;;;;;6.50;1.45;;;13.90;98.00;;;;;;5039332;28;20053;-71
2022/09/16 08:36:33;;;;;;;7.80;1.48;;;13.90;98.10;;;;;;5057417;28;20041;-71
2022/09/16 08:39:02;;;;;;;3.20;1.13;;;13.80;98.00;;;;;;5040045;28;20037;-71
2022/09/16 08:42:00;;;;;;;7.35;1.73;;;13.80;98.10;;;;;;5055951;28;20045;-70
2022/09/16 08:44:50;;;;;;;5.93;1.45;;;13.90;98.20;;;;;;5040101;28;20049;-71
2022/09/16 08:47:41;;;;;;;7.78;1.60;;;13.90;98.10;;;;;;5038083;28;20049;-70
2022/09/16 08:50:17;;;;;;;4.30;1.30;;;14.00;98.10;;;;;;5056884;28;20041;-71
2022/09/16 08:52:46;;;;;;;9.52;1.30;;;14.10;97.20;;;;;;5039889;28;20060;-71
2022/09/16 08:55:23;;;;;;;9.75;1.40;;;14.20;97.60;;;;;;5022069;28;20167;-71
2022/09/16 08:58:06;;;;;;;3.90;1.00;;;14.30;97.40;;;;;;5057120;28;20049;-70
2022/09/16 09:00:33;;;;;;;5.55;1.20;;;14.40;97.10;;;;;;5055858;28;20316;-71
2022/09/16 09:03:32;;;;;;;6.00;1.30;;;14.30;96.70;;;;;;5056815;28;20057;-71
2022/09/16 09:06:02;;;;;;;5.00;1.10;;;14.30;96.50;;;;;;5022536;28;20068;-71
2022/09/16 09:08:42;;;;;;;5.35;1.42;;;14.20;96.40;;;;;;5055881;28;20081;-71
2022/09/16 09:11:14;;;;;;;9.55;1.50;;;14.00;96.60;;;;;;5022709;28;20056;-70
2022/09/16 09:14:12;;;;;;;6.00;1.50;;;14.00;96.60;;;;;;5038500;28;20052;-71
2022/09/16 09:16:45;;;;;;;4.13;1.02;;;13.90;96.60;;;;;;5056356;28;20044;-71
2022/09/16 09:19:31;;;;;;;5.63;1.30;;;13.80;96.50;;;;;;5056461;28;20052;-72
2022/09/16 09:22:26;;;;;;;5.97;1.30;;;13.70;96.70;;;;;;5037951;28;20041;-71
2022/09/16 09:25:31;;;;;;;7.97;1.00;;;13.70;96.90;;;;;;5056666;28;20048;-71
2022/09/16 09:28:20;;;;;;;8.02;1.15;;;13.70;96.20;;;;;;5055124;28;20052;-71
2022/09/16 09:31:04;;;;;;;7.15;0.98;;;13.80;96.70;;;;;;5056201;28;20041;-71
2022/09/16 09:34:00;;;;;;;5.30;1.30;;;14.10;96.60;;;;;;5055036;28;20052;-71
2022/09/16 09:37:02;;;;;;;7.97;1.00;;;14.40;96.60;;;;;;5055978;28;20037;-72
2022/09/16 09:39:44;;;;;;;5.93;1.20;;;14.60;96.30;;;;;;5035128;28;20384;-71
2022/09/16 09:42:20;;;;;;;7.30;1.10;;;14.80;96.20;;;;;;5054663;28;20049;-72
2022/09/16 09:44:55;;;;;;;6.97;1.05;;;15.00;95.90;;;;;;5022404;28;20367;-71
2022/09/16 09:47:33;;;;;;;9.27;1.17;;;15.10;95.50;;;;;;5055352;28;20045;-71
2022/09/16 09:50:24;;;;;;;7.22;1.30;;;15.20;94.40;;;;;;5055655;28;20048;-71
2022/09/16 09:53:19;;;;;;;4.60;1.08;;;15.10;94.70;;;;;;5055523;28;20080;-71
2022/09/16 09:55:48;;;;;;;5.30;1.35;;;15.20;94.40;;;;;;5054532;28;20044;-71
2022/09/16 09:58:45;;;;;;;5.15;1.23;;;15.20;94.00;;;;;;5038535;28;20052;-71
2022/09/16 10:01:14;;;;;;;6.33;1.00;;;15.30;93.30;;;;;;5054709;28;20494;-71
2022/09/16 10:03:44;;;;;;;9.95;1.20;;;15.20;93.60;;;;;;5056149;28;20060;-72
2022/09/16 10:06:14;;;;;;;8.02;1.48;;;15.20;93.60;;;;;;5055586;28;20056;-71
2022/09/16 10:08:49;;;;;;;6.68;1.33;;;15.20;93.90;;;;;;5054414;28;20049;-71
2022/09/16 10:11:23;;;;;;;4.28;1.30;;;15.70;93.70;;;;;;5055747;28;20044;-71
2022/09/16 10:13:54;;;;;;;4.93;1.30;;;15.20;93.20;;;;;;5036867;28;20471;-71
2022/09/16 10:16:25;;;;;;;9.38;1.30;;;15.10;93.40;;;;;;5055716;28;20064;-71
2022/09/16 10:19:10;;;;;;;4.72;1.33;;;15.10;93.40;;;;;;5055353;28;20037;-71
2022/09/16 10:22:08;;;;;;;5.78;1.48;;;15.00;93.20;;;;;;5036952;28;20041;-71
2022/09/16 10:24:43;;;;;;;5.95;1.40;;;14.90;93.00;;;;;;5041251;28;20056;-71
2022/09/16 10:27:22;;;;;;;4.35;1.30;;;14.90;93.20;;;;;;5054284;28;20375;-72
2022/09/16 10:30:16;;;;;;;4.90;1.20;;;14.80;93.00;;;;;;5037840;28;20053;-70
2022/09/16 10:33:05;;;;;;;4.00;1.10;;;14.80;93.00;;;;;;5055561;28;20048;-72
2022/09/16 10:35:36;;;;;;;3.22;1.00;;;14.80;92.70;;;;;;5054119;28;20041;-70
2022/09/16 10:38:03;;;;;;;4.85;1.00;;;14.80;92.80;;;;;;5037886;28;20049;-70
2022/09/16 10:40:31;;;;;;;3.83;0.80;;;14.90;92.80;;;;;;5036426;28;20048;-71
2022/09/16 10:43:04;;;;;;;4.00;1.00;;;14.80;92.90;;;;;;5054591;28;20290;-71
2022/09/16 10:45:36;;;;;;;6.82;1.00;;;14.80;93.00;;;;;;5037952;28;20064;-71
2022/09/16 10:48:10;;;;;;;3.97;0.90;;;14.80;92.70;;;;;;5054224;28;20049;-71
2022/09/16 10:50:38;;;;;;;5.53;0.90;;;14.80;92.70;;;;;;5054760;28;20053;-70
2022/09/16 10:53:44;;;;;;;2.85;0.80;;;14.80;92.20;;;;;;5054214;28;20044;-70
2022/09/16 10:56:24;;;;;;;1.65;0.60;;;14.80;92.30;;;;;;5055112;28;20045;-71
2022/09/16 10:59:12;;;;;;;3.40;0.80;;;14.80;91.90;;;;;;5037627;28;20044;-70
2022/09/16 11:01:43;;;;;;;;;;;14.80;91.90;;;;;;5053950;28;20049;-70
2022/09/16 11:04:25;;;;;;;3.90;0.80;;;14.90;92.10;;;;;;5037442;28;19931;-70
2022/09/16 11:07:10;;;;;;;4.50;0.77;;;15.10;91.80;;;;;;5054729;28;20049;-70
2022/09/16 11:10:03;;;;;;;2.88;0.55;;;15.30;91.40;;;;;;5036997;28;20064;-70
2022/09/16 11:12:41;;;;;;;3.15;0.63;;;15.50;91.70;;;;;;5021094;28;20464;-72
2022/09/16 11:15:37;;;;;;;5.70;0.70;;;15.80;91.50;;;;;;5053522;28;20059;-72
2022/09/16 11:18:20;;;;;;;1.75;0.50;;;16.00;90.40;;;;;;5054652;28;20045;-70
2022/09/16 11:21:09;;;;;;;3.35;0.60;;;16.20;88.60;;;;;;5020208;28;20045;-70
2022/09/16 11:23:59;;;;;;;4.60;0.80;;;16.20;85.90;;;;;;5054836;28;20049;-71
2022/09/16 11:26:36;;;;;;;2.15;0.52;;;16.20;87.80;;;;;;5020777;28;20052;-71
2022/09/16 11:29:39;;;;;;;2.70;0.85;;;16.10;87.80;;;;;;5035956;28;20045;-71
2022/09/16 11:32:16;;;;;;;2.97;0.60;;;16.10;88.20;;;;;;5037677;28;20053;-71
2022/09/16 11:35:09;;;;;;;1.30;0.47;;;16.30;88.40;;;;;;5019420;28;20064;-71
2022/09/16 11:37:49;;;;;;;1.92;0.32;;;16.30;88.70;;;;;;5037167;28;20049;-71
2022/09/16 11:40:46;;;;;;;4.05;0.40;;;16.40;85.10;;;;;;5052452;28;20068;-71
2022/09/16 11:43:25;;;;;;;0.77;0.20;;;16.40;84.40;;;;;;5045768;28;20502;-71
2022/09/16 11:46:13;;;;;;;0.60;0.20;;;16.30;84.40;;;;;;5053933;28;20053;-71
2022/09/16 11:49:05;;;;;;;1.33;0.30;;;16.30;84.20;;;;;;5052794;28;20045;-71
2022/09/16 11:51:49;;;;;;;2.70;0.38;;;16.40;84.40;;;;;;5053646;28;20056;-70
2022/09/16 11:54:41;;;;;;;1.30;0.32;;;16.60;84.80;;;;;;5052689;28;20463;-70
2022/09/16 11:57:17;;;;;;;0.98;0.35;;;16.80;85.00;;;;;;5053956;28;20041;-70
2022/09/16 12:00:04;;;;;;;2.92;0.45;;;17.00;84.70;;;;;;5036369;28;20055;-71
2022/09/16 12:03:00;;;;;;;3.35;0.50;;;16.90;84.00;;;;;;5035502;28;20049;-70
2022/09/16 12:05:45;;;;;;;1.00;0.50;;;16.80;82.10;;;;;;5038184;28;20490;-71
2022/09/16 12:08:22;;;;;;;1.08;0.40;;;16.60;82.90;;;;;;5038824;28;20049;-71
2022/09/16 12:11:16;;;;;;;1.95;0.40;;;16.50;81.20;;;;;;5057519;28;20052;-71
2022/09/16 12:13:56;;;;;;;2.92;0.30;;;16.60;83.70;;;;;;5056676;28;20056;-71
2022/09/16 12:16:40;;;;;;;2.53;0.60;;;16.90;82.90;;;;;;5057012;28;20037;-70
2022/09/16 12:19:32;;;;;;;1.92;0.55;;;17.00;81.60;;;;;;5017352;28;20468;-70
2022/09/16 12:22:04;;;;;;;3.00;0.47;;;17.00;82.50;;;;;;5018768;28;20041;-71
2022/09/16 12:24:45;;;;;;;3.00;0.40;;;17.00;82.40;;;;;;5037450;28;20049;-70
2022/09/16 12:27:25;;;;;;;3.38;0.50;;;16.90;82.60;;;;;;5036085;28;20302;-70
2022/09/16 12:30:12;;;;;;;3.72;0.40;;;16.90;82.20;;;;;;5037376;28;20053;-70
2022/09/16 12:33:09;;;;;;;2.92;0.55;;;16.70;82.20;;;;;;5037215;28;20479;-70
2022/09/16 12:35:41;;;;;;;0.93;0.30;;;16.70;81.70;;;;;;5036005;28;20064;-70
2022/09/16 12:38:16;;;;;;;2.15;0.30;;;16.60;81.10;;;;;;5019489;28;20057;-71
2022/09/16 12:40:52;;;;;;;3.17;0.40;;;16.50;80.50;;;;;;5053353;28;20375;-72
2022/09/16 12:43:45;;;;;;;2.83;0.35;;;16.40;80.00;;;;;;5034640;28;20057;-72
2022/09/16 12:46:33;;;;;;;0.73;0.20;;;16.30;79.40;;;;;;5040313;28;20452;-71
2022/09/16 12:49:36;;;;;;;1.42;0.40;;;16.40;80.10;;;;;;5052021;28;20387;-71
2022/09/16 12:52:44;;;;;;;0.63;0.30;;;16.70;79.70;;;;;;5056594;28;20045;-73
2022/09/16 12:55:39;;;;;;;6.13;0.70;;;16.90;78.80;;;;;;5033315;28;20478;-74
2022/09/16 12:58:41;;;;;;;2.67;0.57;;;17.00;78.30;;;;;;5055932;28;20049;-72
2022/09/16 13:01:25;;;;;;;3.58;0.43;;;17.00;78.00;;;;;;5034884;28;20056;-72
2022/09/16 13:04:20;;;;;;;1.75;0.60;;;16.80;76.80;;;;;;5024630;28;20052;-73
2022/09/16 13:06:58;;;;;;;0.77;0.22;;;16.50;77.80;;;;;;5019981;28;20059;-71
2022/09/16 13:09:29;;;;;;;1.33;0.28;;;16.40;78.40;;;;;;5039731;28;20071;-73
2022/09/16 13:12:04;;;;;;;5.75;0.40;;;16.40;77.80;;;;;;5039431;28;20067;-73
2022/09/16 13:15:03;;;;;;;1.45;0.40;;;16.40;76.90;;;;;;5055355;28;20460;-72
2022/09/16 13:17:34;;;;;;;3.90;0.65;;;16.40;77.50;;;;;;5056218;28;20045;-73
2022/09/16 13:20:17;;;;;;;2.97;0.80;;;16.40;77.20;;;;;;5056448;28;20364;-72
2022/09/16 13:23:24;;;;;;;1.90;0.50;;;16.50;77.60;;;;;;5056054;28;20478;-76
2022/09/16 13:26:06;;;;;;;2.55;0.60;;;16.60;77.00;;;;;;5057010;28;20367;-72
2022/09/16 13:28:40;;;;;;;2.22;0.38;;;16.50;77.40;;;;;;5037285;28;20053;-74
2022/09/16 13:31:27;;;;;;;0.73;0.35;;;16.50;77.60;;;;;;5056241;28;20041;-73
2022/09/16 13:33:57;;;;;;;2.67;0.35;;;16.40;78.00;;;;;;5037561;28;20312;-74